sensor_id;sensor_type;location;lat;lon;timestamp;P1;durP1;ratioP1;P2;durP2;ratioP2
63555;SDS011;49700;48.072;7.800;2023-03-29T00:01:42;2.27;;;2.07;;
63555;SDS011;49700;48.072;7.800;2023-03-29T00:04:07;3.80;;;2.30;;
63555;SDS011;49700;48.072;7.800;2023-03-29T00:06:34;3.20;;;2.00;;
63555;SDS011;49700;48.072;7.800;2023-03-29T00:09:00;4.20;;;2.13;;
63555;SDS011;49700;48.072;7.800;2023-03-29T00:11:29;2.33;;;2.13;;
63555;SDS011;49700;48.072;7.800;2023-03-29T00:13:55;4.47;;;2.20;;
63555;SDS011;49700;48.072;7.800;2023-03-29T00:16:20;3.23;;;2.47;;
63555;SDS011;49700;48.072;7.800;2023-03-29T00:18:46;4.20;;;2.73;;
63555;SDS011;49700;48.072;7.800;2023-03-29T00:21:11;3.90;;;2.07;;
63555;SDS011;49700;48.072;7.800;2023-03-29T00:23:37;2.70;;;1.87;;
63555;SDS011;49700;48.072;7.800;2023-03-29T00:26:02;4.13;;;2.47;;
63555;SDS011;49700;48.072;7.800;2023-03-29T00:28:28;2.83;;;1.97;;
63555;SDS011;49700;48.072;7.800;2023-03-29T00:31:02;3.80;;;2.00;;
63555;SDS011;49700;48.072;7.800;2023-03-29T00:33:29;2.67;;;2.47;;
63555;SDS011;49700;48.072;7.800;2023-03-29T00:35:55;3.67;;;2.70;;
63555;SDS011;49700;48.072;7.800;2023-03-29T00:38:20;2.63;;;1.90;;
63555;SDS011;49700;48.072;7.800;2023-03-29T00:40:46;4.60;;;2.50;;
63555;SDS011;49700;48.072;7.800;2023-03-29T00:43:12;1.90;;;1.80;;
63555;SDS011;49700;48.072;7.800;2023-03-29T00:45:39;2.60;;;1.80;;
63555;SDS011;49700;48.072;7.800;2023-03-29T00:48:05;1.60;;;1.50;;
63555;SDS011;49700;48.072;7.800;2023-03-29T00:50:40;2.03;;;1.83;;
63555;SDS011;49700;48.072;7.800;2023-03-29T00:53:11;2.88;;;2.08;;
63555;SDS011;49700;48.072;7.800;2023-03-29T00:55:52;1.55;;;1.40;;
63555;SDS011;49700;48.072;7.800;2023-03-29T00:58:26;5.43;;;1.73;;
63555;SDS011;49700;48.072;7.800;2023-03-29T01:01:07;1.50;;;1.40;;
63555;SDS011;49700;48.072;7.800;2023-03-29T01:03:43;2.25;;;2.05;;
63555;SDS011;49700;48.072;7.800;2023-03-29T01:06:13;2.40;;;2.20;;
63555;SDS011;49700;48.072;7.800;2023-03-29T01:08:50;5.40;;;2.60;;
63555;SDS011;49700;48.072;7.800;2023-03-29T01:11:42;1.70;;;1.60;;
63555;SDS011;49700;48.072;7.800;2023-03-29T01:14:11;1.63;;;1.30;;
63555;SDS011;49700;48.072;7.800;2023-03-29T01:16:43;2.25;;;2.05;;
63555;SDS011;49700;48.072;7.800;2023-03-29T01:19:11;1.90;;;1.30;;
63555;SDS011;49700;48.072;7.800;2023-03-29T01:21:41;2.17;;;1.40;;
63555;SDS011;49700;48.072;7.800;2023-03-29T01:34:47;3.03;;;1.70;;
63555;SDS011;49700;48.072;7.800;2023-03-29T01:37:22;3.22;;;1.60;;
63555;SDS011;49700;48.072;7.800;2023-03-29T01:39:53;1.80;;;1.70;;
63555;SDS011;49700;48.072;7.800;2023-03-29T01:42:35;2.10;;;1.90;;
63555;SDS011;49700;48.072;7.800;2023-03-29T01:46:03;1.55;;;1.20;;
63555;SDS011;49700;48.072;7.800;2023-03-29T01:48:07;1.38;;;1.27;;
63555;SDS011;49700;48.072;7.800;2023-03-29T01:50:43;2.88;;;2.67;;
63555;SDS011;49700;48.072;7.800;2023-03-29T01:53:14;2.17;;;1.88;;
63555;SDS011;49700;48.072;7.800;2023-03-29T01:55:49;2.22;;;1.70;;
63555;SDS011;49700;48.072;7.800;2023-03-29T01:58:19;4.25;;;1.70;;
63555;SDS011;49700;48.072;7.800;2023-03-29T02:00:47;2.22;;;1.48;;
63555;SDS011;49700;48.072;7.800;2023-03-29T02:03:18;1.48;;;1.33;;
63555;SDS011;49700;48.072;7.800;2023-03-29T02:05:53;3.60;;;1.50;;
63555;SDS011;49700;48.072;7.800;2023-03-29T02:08:24;4.35;;;1.48;;
63555;SDS011;49700;48.072;7.800;2023-03-29T02:10:51;1.92;;;1.58;;
63555;SDS011;49700;48.072;7.800;2023-03-29T02:13:19;3.15;;;1.50;;
63555;SDS011;49700;48.072;7.800;2023-03-29T02:15:47;5.18;;;1.88;;
63555;SDS011;49700;48.072;7.800;2023-03-29T02:18:14;1.70;;;1.60;;
63555;SDS011;49700;48.072;7.800;2023-03-29T02:20:42;2.55;;;2.03;;
63555;SDS011;49700;48.072;7.800;2023-03-29T02:25:58;1.70;;;1.15;;
63555;SDS011;49700;48.072;7.800;2023-03-29T02:28:24;1.70;;;1.58;;
63555;SDS011;49700;48.072;7.800;2023-03-29T02:31:09;3.10;;;1.80;;
63555;SDS011;49700;48.072;7.800;2023-03-29T02:33:43;1.77;;;1.35;;
63555;SDS011;49700;48.072;7.800;2023-03-29T02:36:23;2.22;;;1.52;;
63555;SDS011;49700;48.072;7.800;2023-03-29T02:39:11;2.05;;;1.50;;
63555;SDS011;49700;48.072;7.800;2023-03-29T02:41:39;1.23;;;1.10;;
63555;SDS011;49700;48.072;7.800;2023-03-29T02:44:09;3.60;;;1.77;;
63555;SDS011;49700;48.072;7.800;2023-03-29T02:46:38;2.40;;;1.63;;
63555;SDS011;49700;48.072;7.800;2023-03-29T02:49:07;1.30;;;1.20;;
63555;SDS011;49700;48.072;7.800;2023-03-29T02:51:34;1.45;;;1.33;;
63555;SDS011;49700;48.072;7.800;2023-03-29T02:56:43;1.33;;;1.00;;
63555;SDS011;49700;48.072;7.800;2023-03-29T02:59:11;2.08;;;1.50;;
63555;SDS011;49700;48.072;7.800;2023-03-29T03:01:38;2.13;;;2.03;;
63555;SDS011;49700;48.072;7.800;2023-03-29T03:04:06;1.80;;;1.48;;
63555;SDS011;49700;48.072;7.800;2023-03-29T03:06:34;2.13;;;1.70;;
63555;SDS011;49700;48.072;7.800;2023-03-29T03:09:01;3.00;;;1.70;;
63555;SDS011;49700;48.072;7.800;2023-03-29T03:11:30;2.72;;;1.55;;
63555;SDS011;49700;48.072;7.800;2023-03-29T03:13:57;1.88;;;1.45;;
63555;SDS011;49700;48.072;7.800;2023-03-29T03:16:22;3.10;;;1.60;;
63555;SDS011;49700;48.072;7.800;2023-03-29T03:18:48;1.40;;;1.27;;
63555;SDS011;49700;48.072;7.800;2023-03-29T03:21:15;1.30;;;1.17;;
63555;SDS011;49700;48.072;7.800;2023-03-29T03:23:43;1.30;;;1.20;;
63555;SDS011;49700;48.072;7.800;2023-03-29T03:26:09;1.80;;;1.70;;
63555;SDS011;49700;48.072;7.800;2023-03-29T03:28:36;3.70;;;1.60;;
63555;SDS011;49700;48.072;7.800;2023-03-29T03:31:06;1.95;;;1.38;;
63555;SDS011;49700;48.072;7.800;2023-03-29T03:34:00;2.13;;;1.52;;
63555;SDS011;49700;48.072;7.800;2023-03-29T03:36:55;1.58;;;1.42;;
63555;SDS011;49700;48.072;7.800;2023-03-29T03:39:21;1.53;;;1.37;;
63555;SDS011;49700;48.072;7.800;2023-03-29T03:41:47;1.67;;;1.47;;
63555;SDS011;49700;48.072;7.800;2023-03-29T03:44:12;3.10;;;1.70;;
63555;SDS011;49700;48.072;7.800;2023-03-29T03:46:38;2.40;;;1.93;;
63555;SDS011;49700;48.072;7.800;2023-03-29T03:49:04;4.88;;;2.50;;
63555;SDS011;49700;48.072;7.800;2023-03-29T03:51:32;2.97;;;2.33;;
63555;SDS011;49700;48.072;7.800;2023-03-29T03:53:58;1.63;;;1.53;;
63555;SDS011;49700;48.072;7.800;2023-03-29T03:56:44;2.78;;;1.60;;
63555;SDS011;49700;48.072;7.800;2023-03-29T03:59:14;3.00;;;1.52;;
63555;SDS011;49700;48.072;7.800;2023-03-29T04:01:53;5.38;;;1.80;;
63555;SDS011;49700;48.072;7.800;2023-03-29T04:04:21;2.42;;;1.50;;
63555;SDS011;49700;48.072;7.800;2023-03-29T04:07:01;2.55;;;1.13;;
63555;SDS011;49700;48.072;7.800;2023-03-29T04:10:02;1.48;;;1.00;;
63555;SDS011;49700;48.072;7.800;2023-03-29T04:12:28;1.30;;;1.20;;
63555;SDS011;49700;48.072;7.800;2023-03-29T04:14:54;1.50;;;1.20;;
63555;SDS011;49700;48.072;7.800;2023-03-29T04:17:21;1.50;;;1.20;;
63555;SDS011;49700;48.072;7.800;2023-03-29T04:19:54;1.83;;;1.40;;
63555;SDS011;49700;48.072;7.800;2023-03-29T04:22:20;2.85;;;1.65;;
63555;SDS011;49700;48.072;7.800;2023-03-29T04:24:46;2.05;;;1.70;;
63555;SDS011;49700;48.072;7.800;2023-03-29T04:27:31;2.70;;;1.75;;
63555;SDS011;49700;48.072;7.800;2023-03-29T04:29:59;2.15;;;1.65;;
63555;SDS011;49700;48.072;7.800;2023-03-29T04:32:44;1.95;;;1.20;;
63555;SDS011;49700;48.072;7.800;2023-03-29T04:35:10;3.13;;;1.20;;
63555;SDS011;49700;48.072;7.800;2023-03-29T04:37:36;2.83;;;1.87;;
63555;SDS011;49700;48.072;7.800;2023-03-29T04:40:05;1.83;;;1.45;;
63555;SDS011;49700;48.072;7.800;2023-03-29T04:42:45;2.47;;;1.63;;
63555;SDS011;49700;48.072;7.800;2023-03-29T04:45:14;1.98;;;1.40;;
63555;SDS011;49700;48.072;7.800;2023-03-29T04:48:04;2.95;;;2.38;;
63555;SDS011;49700;48.072;7.800;2023-03-29T04:50:29;1.73;;;1.50;;
63555;SDS011;49700;48.072;7.800;2023-03-29T04:52:56;2.33;;;1.58;;
63555;SDS011;49700;48.072;7.800;2023-03-29T04:55:21;2.10;;;1.70;;
63555;SDS011;49700;48.072;7.800;2023-03-29T04:57:56;2.58;;;1.30;;
63555;SDS011;49700;48.072;7.800;2023-03-29T05:00:29;3.85;;;1.67;;
63555;SDS011;49700;48.072;7.800;2023-03-29T05:02:56;1.95;;;1.20;;
63555;SDS011;49700;48.072;7.800;2023-03-29T05:05:22;1.50;;;1.40;;
63555;SDS011;49700;48.072;7.800;2023-03-29T05:07:48;2.08;;;1.45;;
63555;SDS011;49700;48.072;7.800;2023-03-29T05:10:18;1.83;;;1.50;;
63555;SDS011;49700;48.072;7.800;2023-03-29T05:12:43;4.20;;;1.43;;
63555;SDS011;49700;48.072;7.800;2023-03-29T05:15:09;2.80;;;1.50;;
63555;SDS011;49700;48.072;7.800;2023-03-29T05:17:34;2.30;;;1.60;;
63555;SDS011;49700;48.072;7.800;2023-03-29T05:20:06;3.35;;;1.50;;
63555;SDS011;49700;48.072;7.800;2023-03-29T05:22:34;1.60;;;1.40;;
63555;SDS011;49700;48.072;7.800;2023-03-29T05:25:00;1.38;;;1.00;;
63555;SDS011;49700;48.072;7.800;2023-03-29T05:27:26;1.97;;;1.43;;
63555;SDS011;49700;48.072;7.800;2023-03-29T05:30:04;1.67;;;1.40;;
63555;SDS011;49700;48.072;7.800;2023-03-29T05:32:37;1.85;;;1.35;;
63555;SDS011;49700;48.072;7.800;2023-03-29T05:35:04;1.80;;;1.50;;
63555;SDS011;49700;48.072;7.800;2023-03-29T05:37:31;1.77;;;1.45;;
63555;SDS011;49700;48.072;7.800;2023-03-29T05:40:02;2.03;;;1.80;;
63555;SDS011;49700;48.072;7.800;2023-03-29T05:42:31;2.97;;;1.40;;
63555;SDS011;49700;48.072;7.800;2023-03-29T05:45:02;2.97;;;1.48;;
63555;SDS011;49700;48.072;7.800;2023-03-29T05:47:28;1.83;;;1.58;;
63555;SDS011;49700;48.072;7.800;2023-03-29T05:49:53;2.53;;;1.70;;
63555;SDS011;49700;48.072;7.800;2023-03-29T05:52:20;2.45;;;1.30;;
63555;SDS011;49700;48.072;7.800;2023-03-29T05:54:46;2.20;;;1.37;;
63555;SDS011;49700;48.072;7.800;2023-03-29T05:57:12;2.17;;;1.40;;
63555;SDS011;49700;48.072;7.800;2023-03-29T05:59:38;2.22;;;1.40;;
63555;SDS011;49700;48.072;7.800;2023-03-29T06:02:04;3.47;;;1.52;;
63555;SDS011;49700;48.072;7.800;2023-03-29T06:04:33;1.90;;;1.60;;
63555;SDS011;49700;48.072;7.800;2023-03-29T06:07:19;1.60;;;1.20;;
63555;SDS011;49700;48.072;7.800;2023-03-29T06:10:05;4.03;;;1.88;;
63555;SDS011;49700;48.072;7.800;2023-03-29T06:12:34;1.80;;;1.42;;
63555;SDS011;49700;48.072;7.800;2023-03-29T06:14:59;2.30;;;1.50;;
63555;SDS011;49700;48.072;7.800;2023-03-29T06:17:55;1.73;;;1.35;;
63555;SDS011;49700;48.072;7.800;2023-03-29T06:20:20;2.20;;;1.60;;
63555;SDS011;49700;48.072;7.800;2023-03-29T06:22:51;2.15;;;1.40;;
63555;SDS011;49700;48.072;7.800;2023-03-29T06:25:17;3.33;;;1.58;;
63555;SDS011;49700;48.072;7.800;2023-03-29T06:27:45;2.30;;;1.20;;
63555;SDS011;49700;48.072;7.800;2023-03-29T06:30:13;2.20;;;1.55;;
63555;SDS011;49700;48.072;7.800;2023-03-29T06:32:42;2.47;;;1.70;;
63555;SDS011;49700;48.072;7.800;2023-03-29T06:35:19;4.60;;;1.40;;
63555;SDS011;49700;48.072;7.800;2023-03-29T06:37:52;1.65;;;1.55;;
63555;SDS011;49700;48.072;7.800;2023-03-29T06:40:29;1.42;;;1.27;;
63555;SDS011;49700;48.072;7.800;2023-03-29T06:42:55;1.55;;;1.45;;
63555;SDS011;49700;48.072;7.800;2023-03-29T06:45:40;1.23;;;1.13;;
63555;SDS011;49700;48.072;7.800;2023-03-29T06:48:15;2.70;;;1.17;;
63555;SDS011;49700;48.072;7.800;2023-03-29T06:50:40;3.33;;;1.60;;
63555;SDS011;49700;48.072;7.800;2023-03-29T06:53:12;3.58;;;1.60;;
63555;SDS011;49700;48.072;7.800;2023-03-29T06:55:41;3.50;;;1.35;;
63555;SDS011;49700;48.072;7.800;2023-03-29T06:58:29;5.03;;;1.70;;
63555;SDS011;49700;48.072;7.800;2023-03-29T07:00:59;3.40;;;2.63;;
63555;SDS011;49700;48.072;7.800;2023-03-29T07:03:43;4.25;;;3.25;;
63555;SDS011;49700;48.072;7.800;2023-03-29T07:06:09;1.83;;;1.73;;
63555;SDS011;49700;48.072;7.800;2023-03-29T07:08:38;2.95;;;2.08;;
63555;SDS011;49700;48.072;7.800;2023-03-29T07:11:15;2.58;;;1.60;;
63555;SDS011;49700;48.072;7.800;2023-03-29T07:13:56;2.22;;;1.80;;
63555;SDS011;49700;48.072;7.800;2023-03-29T07:16:22;3.42;;;1.65;;
63555;SDS011;49700;48.072;7.800;2023-03-29T07:19:02;1.30;;;1.20;;
63555;SDS011;49700;48.072;7.800;2023-03-29T07:21:54;2.45;;;1.60;;
63555;SDS011;49700;48.072;7.800;2023-03-29T07:24:36;4.80;;;1.70;;
63555;SDS011;49700;48.072;7.800;2023-03-29T07:27:03;2.22;;;1.55;;
63555;SDS011;49700;48.072;7.800;2023-03-29T07:29:37;1.80;;;1.45;;
63555;SDS011;49700;48.072;7.800;2023-03-29T07:32:03;1.05;;;0.95;;
63555;SDS011;49700;48.072;7.800;2023-03-29T07:34:42;2.38;;;1.42;;
63555;SDS011;49700;48.072;7.800;2023-03-29T07:37:20;4.72;;;1.70;;
63555;SDS011;49700;48.072;7.800;2023-03-29T07:39:49;1.63;;;1.30;;
63555;SDS011;49700;48.072;7.800;2023-03-29T07:42:35;2.25;;;1.52;;
63555;SDS011;49700;48.072;7.800;2023-03-29T07:45:05;3.20;;;1.83;;
63555;SDS011;49700;48.072;7.800;2023-03-29T07:47:39;2.55;;;1.70;;
63555;SDS011;49700;48.072;7.800;2023-03-29T07:50:06;1.52;;;1.40;;
63555;SDS011;49700;48.072;7.800;2023-03-29T07:52:36;2.05;;;1.30;;
63555;SDS011;49700;48.072;7.800;2023-03-29T07:55:06;2.05;;;1.42;;
63555;SDS011;49700;48.072;7.800;2023-03-29T07:57:59;2.03;;;1.55;;
63555;SDS011;49700;48.072;7.800;2023-03-29T08:00:46;3.35;;;1.45;;
63555;SDS011;49700;48.072;7.800;2023-03-29T08:03:43;2.08;;;1.40;;
63555;SDS011;49700;48.072;7.800;2023-03-29T08:06:12;1.75;;;1.50;;
63555;SDS011;49700;48.072;7.800;2023-03-29T08:08:38;1.77;;;1.67;;
63555;SDS011;49700;48.072;7.800;2023-03-29T08:11:09;3.03;;;1.55;;
63555;SDS011;49700;48.072;7.800;2023-03-29T08:13:57;1.33;;;1.20;;
63555;SDS011;49700;48.072;7.800;2023-03-29T08:16:32;3.95;;;1.58;;
63555;SDS011;49700;48.072;7.800;2023-03-29T08:19:09;1.73;;;1.63;;
63555;SDS011;49700;48.072;7.800;2023-03-29T08:21:51;1.85;;;1.20;;
63555;SDS011;49700;48.072;7.800;2023-03-29T08:27:07;2.00;;;1.60;;
63555;SDS011;49700;48.072;7.800;2023-03-29T08:29:35;2.70;;;1.63;;
63555;SDS011;49700;48.072;7.800;2023-03-29T08:32:01;1.70;;;1.60;;
63555;SDS011;49700;48.072;7.800;2023-03-29T08:34:27;2.33;;;1.65;;
63555;SDS011;49700;48.072;7.800;2023-03-29T08:37:17;1.55;;;1.38;;
63555;SDS011;49700;48.072;7.800;2023-03-29T08:39:45;3.25;;;1.50;;
63555;SDS011;49700;48.072;7.800;2023-03-29T08:42:46;2.45;;;1.30;;
63555;SDS011;49700;48.072;7.800;2023-03-29T08:51:16;1.15;;;1.05;;
63555;SDS011;49700;48.072;7.800;2023-03-29T08:54:03;2.85;;;1.25;;
63555;SDS011;49700;48.072;7.800;2023-03-29T08:56:50;2.50;;;2.30;;
63555;SDS011;49700;48.072;7.800;2023-03-29T08:59:27;2.03;;;1.92;;
63555;SDS011;49700;48.072;7.800;2023-03-29T09:01:57;2.25;;;2.05;;
63555;SDS011;49700;48.072;7.800;2023-03-29T09:04:28;2.25;;;1.38;;
63555;SDS011;49700;48.072;7.800;2023-03-29T09:07:23;2.05;;;1.70;;
63555;SDS011;49700;48.072;7.800;2023-03-29T09:09:49;2.03;;;1.60;;
63555;SDS011;49700;48.072;7.800;2023-03-29T09:12:25;2.08;;;1.52;;
63555;SDS011;49700;48.072;7.800;2023-03-29T09:15:17;1.33;;;1.20;;
63555;SDS011;49700;48.072;7.800;2023-03-29T09:21:19;3.90;;;1.50;;
63555;SDS011;49700;48.072;7.800;2023-03-29T09:26:58;2.13;;;1.40;;
63555;SDS011;49700;48.072;7.800;2023-03-29T09:32:54;2.45;;;1.98;;
63555;SDS011;49700;48.072;7.800;2023-03-29T09:38:38;2.10;;;1.83;;
63555;SDS011;49700;48.072;7.800;2023-03-29T09:43:44;2.00;;;1.27;;
63555;SDS011;49700;48.072;7.800;2023-03-29T09:46:18;2.35;;;1.30;;
63555;SDS011;49700;48.072;7.800;2023-03-29T09:48:48;1.50;;;1.20;;
63555;SDS011;49700;48.072;7.800;2023-03-29T09:51:15;1.65;;;1.42;;
63555;SDS011;49700;48.072;7.800;2023-03-29T09:53:44;2.78;;;1.40;;
63555;SDS011;49700;48.072;7.800;2023-03-29T09:56:33;1.48;;;1.23;;
63555;SDS011;49700;48.072;7.800;2023-03-29T09:59:09;1.40;;;1.30;;
63555;SDS011;49700;48.072;7.800;2023-03-29T10:01:37;1.63;;;1.30;;
63555;SDS011;49700;48.072;7.800;2023-03-29T10:04:30;1.48;;;1.10;;
63555;SDS011;49700;48.072;7.800;2023-03-29T10:07:04;5.40;;;1.70;;
63555;SDS011;49700;48.072;7.800;2023-03-29T10:09:30;4.22;;;1.10;;
63555;SDS011;49700;48.072;7.800;2023-03-29T10:12:09;1.30;;;1.20;;
63555;SDS011;49700;48.072;7.800;2023-03-29T10:14:44;1.58;;;1.48;;
63555;SDS011;49700;48.072;7.800;2023-03-29T10:17:13;1.80;;;1.70;;
63555;SDS011;49700;48.072;7.800;2023-03-29T10:19:49;4.57;;;2.00;;
63555;SDS011;49700;48.072;7.800;2023-03-29T10:22:17;1.27;;;1.17;;
63555;SDS011;49700;48.072;7.800;2023-03-29T10:24:50;1.67;;;1.50;;
63555;SDS011;49700;48.072;7.800;2023-03-29T10:27:25;1.85;;;1.20;;
63555;SDS011;49700;48.072;7.800;2023-03-29T10:30:09;1.42;;;1.20;;
63555;SDS011;49700;48.072;7.800;2023-03-29T10:32:37;1.73;;;1.40;;
63555;SDS011;49700;48.072;7.800;2023-03-29T10:37:48;3.85;;;1.70;;
63555;SDS011;49700;48.072;7.800;2023-03-29T10:40:19;2.38;;;1.70;;
63555;SDS011;49700;48.072;7.800;2023-03-29T10:42:49;2.17;;;1.85;;
63555;SDS011;49700;48.072;7.800;2023-03-29T10:45:19;2.35;;;1.45;;
63555;SDS011;49700;48.072;7.800;2023-03-29T10:47:49;1.80;;;1.45;;
63555;SDS011;49700;48.072;7.800;2023-03-29T10:50:15;4.10;;;1.60;;
63555;SDS011;49700;48.072;7.800;2023-03-29T10:52:41;5.43;;;3.20;;
63555;SDS011;49700;48.072;7.800;2023-03-29T10:55:07;3.37;;;1.77;;
63555;SDS011;49700;48.072;7.800;2023-03-29T10:57:49;3.40;;;1.35;;
63555;SDS011;49700;48.072;7.800;2023-03-29T11:00:41;1.17;;;1.00;;
63555;SDS011;49700;48.072;7.800;2023-03-29T11:05:53;1.70;;;1.25;;
63555;SDS011;49700;48.072;7.800;2023-03-29T11:11:20;1.85;;;1.38;;
63555;SDS011;49700;48.072;7.800;2023-03-29T11:14:16;1.77;;;1.27;;
63555;SDS011;49700;48.072;7.800;2023-03-29T11:19:49;1.37;;;1.20;;
63555;SDS011;49700;48.072;7.800;2023-03-29T11:22:37;3.17;;;1.63;;
63555;SDS011;49700;48.072;7.800;2023-03-29T11:25:14;3.70;;;1.80;;
63555;SDS011;49700;48.072;7.800;2023-03-29T11:32:55;1.83;;;1.33;;
63555;SDS011;49700;48.072;7.800;2023-03-29T11:41:37;4.70;;;2.40;;
63555;SDS011;49700;48.072;7.800;2023-03-29T11:44:19;2.33;;;1.30;;
63555;SDS011;49700;48.072;7.800;2023-03-29T11:46:53;2.33;;;1.47;;
63555;SDS011;49700;48.072;7.800;2023-03-29T11:49:30;3.43;;;1.50;;
63555;SDS011;49700;48.072;7.800;2023-03-29T12:00:03;3.22;;;1.40;;
63555;SDS011;49700;48.072;7.800;2023-03-29T12:06:23;4.35;;;1.98;;
63555;SDS011;49700;48.072;7.800;2023-03-29T12:08:24;5.57;;;1.77;;
63555;SDS011;49700;48.072;7.800;2023-03-29T12:10:57;3.70;;;2.13;;
63555;SDS011;49700;48.072;7.800;2023-03-29T12:13:32;2.53;;;2.03;;
63555;SDS011;49700;48.072;7.800;2023-03-29T12:16:08;2.60;;;1.97;;
63555;SDS011;49700;48.072;7.800;2023-03-29T12:18:50;4.50;;;3.00;;
63555;SDS011;49700;48.072;7.800;2023-03-29T12:21:22;2.00;;;1.77;;
63555;SDS011;49700;48.072;7.800;2023-03-29T12:23:51;3.50;;;1.77;;
63555;SDS011;49700;48.072;7.800;2023-03-29T12:26:22;1.77;;;1.53;;
63555;SDS011;49700;48.072;7.800;2023-03-29T12:40:40;2.30;;;1.77;;
63555;SDS011;49700;48.072;7.800;2023-03-29T12:43:39;2.83;;;1.77;;
63555;SDS011;49700;48.072;7.800;2023-03-29T12:49:11;1.30;;;1.20;;
63555;SDS011;49700;48.072;7.800;2023-03-29T12:51:38;1.47;;;1.37;;
63555;SDS011;49700;48.072;7.800;2023-03-29T12:54:12;1.63;;;1.20;;
63555;SDS011;49700;48.072;7.800;2023-03-29T12:56:52;2.20;;;1.53;;
63555;SDS011;49700;48.072;7.800;2023-03-29T12:59:26;2.03;;;1.20;;
63555;SDS011;49700;48.072;7.800;2023-03-29T13:07:50;2.87;;;2.40;;
63555;SDS011;49700;48.072;7.800;2023-03-29T13:10:09;1.70;;;1.60;;
63555;SDS011;49700;48.072;7.800;2023-03-29T13:12:54;1.30;;;1.20;;
63555;SDS011;49700;48.072;7.800;2023-03-29T13:15:21;3.40;;;2.03;;
63555;SDS011;49700;48.072;7.800;2023-03-29T13:18:10;2.93;;;1.40;;
63555;SDS011;49700;48.072;7.800;2023-03-29T13:32:01;4.77;;;1.73;;
63555;SDS011;49700;48.072;7.800;2023-03-29T13:45:44;1.30;;;1.20;;
63555;SDS011;49700;48.072;7.800;2023-03-29T13:48:29;3.13;;;1.90;;
63555;SDS011;49700;48.072;7.800;2023-03-29T13:51:57;2.00;;;1.30;;
63555;SDS011;49700;48.072;7.800;2023-03-29T13:54:17;2.67;;;1.40;;
63555;SDS011;49700;48.072;7.800;2023-03-29T13:57:07;2.67;;;1.93;;
63555;SDS011;49700;48.072;7.800;2023-03-29T13:59:46;1.97;;;1.50;;
63555;SDS011;49700;48.072;7.800;2023-03-29T14:02:21;2.07;;;1.10;;
63555;SDS011;49700;48.072;7.800;2023-03-29T14:04:54;2.00;;;1.47;;
63555;SDS011;49700;48.072;7.800;2023-03-29T14:07:21;2.77;;;1.20;;
63555;SDS011;49700;48.072;7.800;2023-03-29T14:09:50;2.93;;;1.10;;
63555;SDS011;49700;48.072;7.800;2023-03-29T14:12:17;1.50;;;1.10;;
63555;SDS011;49700;48.072;7.800;2023-03-29T14:14:43;2.60;;;1.37;;
63555;SDS011;49700;48.072;7.800;2023-03-29T14:17:15;3.03;;;1.70;;
63555;SDS011;49700;48.072;7.800;2023-03-29T14:19:45;5.17;;;3.07;;
63555;SDS011;49700;48.072;7.800;2023-03-29T14:22:15;1.93;;;1.70;;
63555;SDS011;49700;48.072;7.800;2023-03-29T14:24:47;1.40;;;1.30;;
63555;SDS011;49700;48.072;7.800;2023-03-29T14:27:17;4.90;;;1.70;;
63555;SDS011;49700;48.072;7.800;2023-03-29T14:29:47;2.40;;;1.50;;
63555;SDS011;49700;48.072;7.800;2023-03-29T14:32:15;3.47;;;1.60;;
63555;SDS011;49700;48.072;7.800;2023-03-29T14:34:42;2.20;;;1.90;;
63555;SDS011;49700;48.072;7.800;2023-03-29T14:37:12;4.53;;;1.47;;
63555;SDS011;49700;48.072;7.800;2023-03-29T14:39:42;3.03;;;1.50;;
63555;SDS011;49700;48.072;7.800;2023-03-29T14:42:16;2.77;;;1.60;;
63555;SDS011;49700;48.072;7.800;2023-03-29T14:44:47;1.53;;;1.30;;
63555;SDS011;49700;48.072;7.800;2023-03-29T14:47:32;3.10;;;1.90;;
63555;SDS011;49700;48.072;7.800;2023-03-29T14:49:58;4.30;;;2.43;;
63555;SDS011;49700;48.072;7.800;2023-03-29T14:52:26;3.10;;;2.13;;
63555;SDS011;49700;48.072;7.800;2023-03-29T14:54:53;5.33;;;2.87;;
63555;SDS011;49700;48.072;7.800;2023-03-29T14:57:26;4.93;;;1.33;;
63555;SDS011;49700;48.072;7.800;2023-03-29T14:59:59;2.77;;;1.57;;
63555;SDS011;49700;48.072;7.800;2023-03-29T15:05:02;6.13;;;1.60;;
63555;SDS011;49700;48.072;7.800;2023-03-29T15:07:30;2.93;;;2.00;;
63555;SDS011;49700;48.072;7.800;2023-03-29T15:09:57;7.13;;;3.00;;
63555;SDS011;49700;48.072;7.800;2023-03-29T15:12:24;3.60;;;2.03;;
63555;SDS011;49700;48.072;7.800;2023-03-29T15:14:54;4.30;;;1.63;;
63555;SDS011;49700;48.072;7.800;2023-03-29T15:17:23;4.10;;;1.47;;
63555;SDS011;49700;48.072;7.800;2023-03-29T15:19:58;2.60;;;1.80;;
63555;SDS011;49700;48.072;7.800;2023-03-29T15:22:33;4.87;;;1.80;;
63555;SDS011;49700;48.072;7.800;2023-03-29T15:24:59;4.40;;;1.50;;
63555;SDS011;49700;48.072;7.800;2023-03-29T15:27:25;2.53;;;1.40;;
63555;SDS011;49700;48.072;7.800;2023-03-29T15:29:57;2.80;;;1.40;;
63555;SDS011;49700;48.072;7.800;2023-03-29T15:32:31;2.37;;;1.47;;
63555;SDS011;49700;48.072;7.800;2023-03-29T15:35:02;2.80;;;1.77;;
63555;SDS011;49700;48.072;7.800;2023-03-29T15:37:30;6.40;;;1.10;;
63555;SDS011;49700;48.072;7.800;2023-03-29T15:39:56;2.13;;;1.30;;
63555;SDS011;49700;48.072;7.800;2023-03-29T15:42:22;4.00;;;1.43;;
63555;SDS011;49700;48.072;7.800;2023-03-29T15:44:48;2.60;;;1.67;;
63555;SDS011;49700;48.072;7.800;2023-03-29T15:47:18;1.90;;;1.40;;
63555;SDS011;49700;48.072;7.800;2023-03-29T15:49:45;5.60;;;2.47;;
63555;SDS011;49700;48.072;7.800;2023-03-29T15:52:11;2.57;;;1.50;;
63555;SDS011;49700;48.072;7.800;2023-03-29T15:54:36;3.10;;;1.60;;
63555;SDS011;49700;48.072;7.800;2023-03-29T15:57:03;6.63;;;1.30;;
63555;SDS011;49700;48.072;7.800;2023-03-29T15:59:31;3.10;;;1.97;;
63555;SDS011;49700;48.072;7.800;2023-03-29T16:01:57;10.47;;;2.30;;
63555;SDS011;49700;48.072;7.800;2023-03-29T16:04:23;2.20;;;1.53;;
63555;SDS011;49700;48.072;7.800;2023-03-29T16:06:51;3.07;;;1.67;;
63555;SDS011;49700;48.072;7.800;2023-03-29T16:09:18;5.13;;;2.03;;
63555;SDS011;49700;48.072;7.800;2023-03-29T16:11:46;4.63;;;1.60;;
63555;SDS011;49700;48.072;7.800;2023-03-29T16:16:54;2.93;;;1.83;;
63555;SDS011;49700;48.072;7.800;2023-03-29T16:19:21;4.33;;;1.70;;
63555;SDS011;49700;48.072;7.800;2023-03-29T16:21:46;3.23;;;1.57;;
63555;SDS011;49700;48.072;7.800;2023-03-29T16:24:13;6.43;;;1.80;;
63555;SDS011;49700;48.072;7.800;2023-03-29T16:26:41;2.77;;;1.30;;
63555;SDS011;49700;48.072;7.800;2023-03-29T16:29:07;5.53;;;1.63;;
63555;SDS011;49700;48.072;7.800;2023-03-29T16:31:32;3.77;;;1.87;;
63555;SDS011;49700;48.072;7.800;2023-03-29T16:33:58;1.83;;;1.60;;
63555;SDS011;49700;48.072;7.800;2023-03-29T16:36:23;4.13;;;1.70;;
63555;SDS011;49700;48.072;7.800;2023-03-29T16:38:49;2.90;;;2.10;;
63555;SDS011;49700;48.072;7.800;2023-03-29T16:41:14;9.17;;;3.80;;
63555;SDS011;49700;48.072;7.800;2023-03-29T16:43:41;3.00;;;2.20;;
63555;SDS011;49700;48.072;7.800;2023-03-29T16:46:10;3.87;;;1.77;;
63555;SDS011;49700;48.072;7.800;2023-03-29T16:48:35;7.30;;;2.23;;
63555;SDS011;49700;48.072;7.800;2023-03-29T16:51:01;6.63;;;3.70;;
63555;SDS011;49700;48.072;7.800;2023-03-29T16:53:27;4.43;;;3.53;;
63555;SDS011;49700;48.072;7.800;2023-03-29T16:55:54;12.60;;;7.23;;
63555;SDS011;49700;48.072;7.800;2023-03-29T16:58:21;7.20;;;4.47;;
63555;SDS011;49700;48.072;7.800;2023-03-29T17:00:47;4.87;;;3.03;;
63555;SDS011;49700;48.072;7.800;2023-03-29T17:03:13;8.07;;;5.90;;
63555;SDS011;49700;48.072;7.800;2023-03-29T17:05:44;9.90;;;8.07;;
63555;SDS011;49700;48.072;7.800;2023-03-29T17:08:21;7.73;;;4.87;;
63555;SDS011;49700;48.072;7.800;2023-03-29T17:10:53;6.37;;;3.57;;
63555;SDS011;49700;48.072;7.800;2023-03-29T17:13:19;3.60;;;3.30;;
63555;SDS011;49700;48.072;7.800;2023-03-29T17:15:48;9.60;;;7.20;;
63555;SDS011;49700;48.072;7.800;2023-03-29T17:18:18;11.60;;;7.82;;
63555;SDS011;49700;48.072;7.800;2023-03-29T17:20:44;8.43;;;4.93;;